Time;durP1;ratioP1;P1;durP2;ratioP2;P2;SDS_P1;SDS_P2;PMS_P1;PMS_P2;Temp;Humidity;BMP_temperature;BMP_pressure;BME280_temperature;BME280_humidity;BME280_pressure;Samples;Min_cycle;Max_cycle;Signal;HPM_P1;HPM_P2
2021/11/23 00:01:52;;;;;;;22.38;18.23;;;1.80;88.90;;;;;;5037911;28;20379;-76
2021/11/23 00:04:17;;;;;;;24.73;18.35;;;1.80;88.90;;;;;;5033927;28;20029;-73
2021/11/23 00:06:43;;;;;;;22.38;17.38;;;1.80;88.90;;;;;;5043955;28;20026;-73
2021/11/23 00:09:09;;;;;;;26.38;18.17;;;1.80;89.00;;;;;;5039429;28;20115;-73
2021/11/23 00:11:34;;;;;;;21.75;17.15;;;1.80;89.00;;;;;;5060118;28;20033;-73
2021/11/23 00:14:00;;;;;;;26.17;17.35;;;1.80;88.90;;;;;;5063270;28;20028;-73
2021/11/23 00:16:26;;;;;;;23.60;16.20;;;1.80;88.80;;;;;;5079333;28;20326;-75
2021/11/23 00:18:51;;;;;;;22.77;16.45;;;1.70;88.60;;;;;;5064272;28;20486;-73
2021/11/23 00:21:18;;;;;;;20.98;17.48;;;1.70;88.60;;;;;;5065553;28;20452;-73
2021/11/23 00:23:44;;;;;;;22.33;18.05;;;1.70;88.70;;;;;;5064113;28;20066;-73
2021/11/23 00:26:09;;;;;;;26.63;18.17;;;1.70;88.50;;;;;;5066166;28;20032;-73
2021/11/23 00:28:35;;;;;;;25.20;18.73;;;1.60;88.60;;;;;;5063872;28;20374;-73
2021/11/23 00:31:01;;;;;;;27.02;19.33;;;1.60;88.50;;;;;;5065738;28;20041;-72
2021/11/23 00:33:40;;;;;;;27.15;18.80;;;1.60;88.50;;;;;;5066805;28;20029;-82
2021/11/23 00:36:06;;;;;;;27.60;21.02;;;1.60;88.60;;;;;;5057533;28;20032;-73
2021/11/23 00:38:32;;;;;;;27.83;20.38;;;1.60;88.80;;;;;;5064335;28;20380;-73
2021/11/23 00:40:57;;;;;;;27.63;21.02;;;1.60;88.90;;;;;;5057865;28;20482;-74
2021/11/23 00:43:23;;;;;;;27.52;20.27;;;1.60;89.00;;;;;;5040297;28;20034;-74
2021/11/23 00:45:49;;;;;;;30.08;22.02;;;1.60;89.10;;;;;;5051291;28;20036;-73
2021/11/23 00:48:14;;;;;;;32.03;21.80;;;1.60;89.10;;;;;;5050841;28;20036;-75
2021/11/23 00:50:40;;;;;;;30.45;22.80;;;1.60;89.10;;;;;;5047405;28;20025;-72
2021/11/23 00:53:07;;;;;;;32.72;23.42;;;1.60;89.00;;;;;;5047699;28;20079;-77
2021/11/23 00:55:33;;;;;;;28.85;21.98;;;1.50;89.00;;;;;;5058719;28;20120;-73
2021/11/23 00:57:59;;;;;;;34.05;23.13;;;1.50;89.10;;;;;;5051798;28;20056;-72
2021/11/23 01:00:25;;;;;;;29.20;21.70;;;1.50;89.10;;;;;;5050816;28;20455;-71
2021/11/23 01:02:51;;;;;;;26.38;20.58;;;1.50;89.20;;;;;;5061789;28;20367;-71
2021/11/23 01:05:17;;;;;;;25.90;19.73;;;1.50;89.20;;;;;;5048578;28;20037;-72
2021/11/23 01:07:43;;;;;;;24.35;19.38;;;1.50;89.20;;;;;;5057227;28;20117;-72
2021/11/23 01:10:10;;;;;;;24.45;18.70;;;1.40;89.20;;;;;;5044703;28;20461;-76
2021/11/23 01:12:36;;;;;;;25.13;18.45;;;1.40;89.30;;;;;;5046554;28;20041;-71
2021/11/23 01:15:05;;;;;;;27.65;20.25;;;1.40;89.30;;;;;;5056101;28;20056;-72
2021/11/23 01:17:30;;;;;;;26.10;19.67;;;1.40;89.30;;;;;;5048511;28;20021;-71
2021/11/23 01:19:56;;;;;;;24.13;20.45;;;1.40;89.20;;;;;;5051340;28;20449;-72
2021/11/23 01:22:22;;;;;;;25.73;18.88;;;1.40;89.10;;;;;;5051326;28;20044;-72
2021/11/23 01:24:48;;;;;;;27.05;19.77;;;1.30;89.00;;;;;;5049359;28;20673;-71
2021/11/23 01:27:14;;;;;;;23.83;18.67;;;1.20;88.90;;;;;;5052044;28;20040;-77
2021/11/23 01:29:39;;;;;;;26.42;19.48;;;1.20;88.90;;;;;;5050448;28;20107;-73
2021/11/23 01:32:06;;;;;;;26.75;19.13;;;1.20;89.00;;;;;;5049335;28;20041;-71
2021/11/23 01:34:31;;;;;;;27.23;20.00;;;1.20;89.10;;;;;;5051371;28;20029;-74
2021/11/23 01:36:57;;;;;;;24.20;19.23;;;1.20;89.20;;;;;;5052693;28;20039;-71
2021/11/23 01:39:24;;;;;;;24.33;18.38;;;1.20;89.20;;;;;;5052523;28;20063;-72
2021/11/23 01:41:50;;;;;;;25.17;17.88;;;1.10;89.20;;;;;;5062838;28;20179;-73
2021/11/23 01:44:16;;;;;;;23.38;17.13;;;1.10;89.30;;;;;;5051706;28;20033;-74
2021/11/23 01:46:41;;;;;;;23.50;17.38;;;1.10;89.20;;;;;;5066234;28;20032;-71
2021/11/23 01:49:07;;;;;;;24.75;17.65;;;1.10;89.30;;;;;;5066414;28;20465;-72
2021/11/23 01:51:33;;;;;;;23.65;17.38;;;1.10;89.30;;;;;;5053360;28;20037;-75
2021/11/23 01:53:59;;;;;;;24.92;17.35;;;1.10;89.40;;;;;;5060067;28;20395;-72
2021/11/23 01:56:25;;;;;;;22.65;17.17;;;1.10;89.40;;;;;;5048464;28;20031;-80
2021/11/23 01:58:51;;;;;;;21.65;17.15;;;1.10;89.40;;;;;;5048492;28;20376;-76
2021/11/23 02:01:17;;;;;;;22.77;16.63;;;1.10;89.50;;;;;;5052472;28;20045;-71
2021/11/23 02:03:43;;;;;;;28.63;18.25;;;1.10;89.50;;;;;;5060967;28;20027;-72
2021/11/23 02:06:09;;;;;;;28.85;20.30;;;1.20;89.50;;;;;;5051629;28;20029;-72
2021/11/23 02:08:34;;;;;;;25.20;19.08;;;1.10;89.50;;;;;;5053472;28;20050;-73
2021/11/23 02:11:00;;;;;;;25.77;19.42;;;1.10;89.60;;;;;;5066252;28;20375;-73
2021/11/23 02:13:29;;;;;;;26.77;19.55;;;1.10;89.60;;;;;;5068985;28;20353;-72
2021/11/23 02:15:58;;;;;;;25.23;19.67;;;1.20;89.70;;;;;;5066928;28;20064;-76
2021/11/23 02:18:26;;;;;;;26.15;18.40;;;1.20;89.60;;;;;;5055582;28;20036;-75
2021/11/23 02:20:52;;;;;;;24.73;17.90;;;1.10;89.50;;;;;;5048197;28;20052;-73
2021/11/23 02:23:18;;;;;;;23.25;17.80;;;1.10;89.30;;;;;;5045246;28;20124;-71
2021/11/23 02:25:45;;;;;;;22.02;17.45;;;1.10;89.20;;;;;;5049229;28;20033;-72
2021/11/23 02:28:11;;;;;;;21.50;17.35;;;1.10;89.20;;;;;;5042941;28;20076;-72
2021/11/23 02:30:50;;;;;;;23.83;17.27;;;1.00;89.20;;;;;;5048377;28;20040;-72
2021/11/23 02:33:18;;;;;;;23.58;17.90;;;1.00;89.30;;;;;;5044017;28;20391;-73
2021/11/23 02:35:44;;;;;;;26.00;18.35;;;1.10;89.30;;;;;;5048618;28;20345;-75
2021/11/23 02:38:10;;;;;;;26.48;18.77;;;1.10;89.40;;;;;;5046334;28;20107;-72
2021/11/23 02:40:36;;;;;;;23.60;17.02;;;1.10;89.50;;;;;;5047862;28;20021;-73
2021/11/23 02:43:03;;;;;;;26.45;18.20;;;1.10;89.50;;;;;;5047796;28;20372;-72
2021/11/23 02:45:29;;;;;;;25.33;17.90;;;1.20;89.40;;;;;;5049843;28;20114;-71
2021/11/23 02:47:57;;;;;;;26.25;17.63;;;1.20;89.10;;;;;;5047702;28;20025;-73
2021/11/23 02:50:25;;;;;;;25.60;17.73;;;1.20;88.90;;;;;;5059994;28;20417;-71
2021/11/23 02:52:51;;;;;;;30.40;17.35;;;1.20;88.80;;;;;;5070622;28;20369;-74
2021/11/23 02:55:18;;;;;;;24.30;16.92;;;1.20;88.90;;;;;;5070690;28;20036;-72
2021/11/23 02:57:44;;;;;;;27.90;16.67;;;1.20;88.90;;;;;;5061023;28;20035;-75
2021/11/23 03:00:19;;;;;;;26.95;18.25;;;1.20;89.00;;;;;;5056027;28;20025;-74
2021/11/23 03:02:46;;;;;;;26.02;17.77;;;1.20;89.10;;;;;;5052522;28;20076;-72
2021/11/23 03:05:13;;;;;;;24.40;18.50;;;1.20;89.20;;;;;;5048406;28;20464;-73
2021/11/23 03:07:39;;;;;;;27.63;18.38;;;1.20;89.40;;;;;;5060920;28;20385;-71
2021/11/23 03:10:09;;;;;;;25.75;17.92;;;1.20;89.50;;;;;;5058651;28;20709;-76
2021/11/23 03:12:36;;;;;;;22.10;17.10;;;1.20;89.60;;;;;;5058711;28;20035;-75
2021/11/23 03:15:02;;;;;;;27.83;17.10;;;1.20;89.60;;;;;;5045534;28;20032;-72
2021/11/23 03:17:28;;;;;;;24.90;17.70;;;1.10;89.50;;;;;;5071615;28;20047;-71
2021/11/23 03:19:54;;;;;;;22.92;17.77;;;1.10;89.50;;;;;;5057591;28;20469;-72
2021/11/23 03:22:20;;;;;;;26.50;18.48;;;1.10;89.60;;;;;;5060714;28;20412;-74
2021/11/23 03:24:46;;;;;;;27.60;19.08;;;1.10;89.70;;;;;;5046200;28;20039;-73
2021/11/23 03:27:13;;;;;;;29.20;18.98;;;1.10;89.70;;;;;;5052692;28;20055;-71
2021/11/23 03:29:41;;;;;;;26.58;19.70;;;1.10;89.70;;;;;;5047699;28;20105;-73
2021/11/23 03:32:10;;;;;;;29.02;18.38;;;1.10;89.70;;;;;;5054466;28;20024;-82
2021/11/23 03:34:37;;;;;;;26.63;19.88;;;1.10;89.80;;;;;;5045738;28;20037;-72
2021/11/23 03:37:13;;;;;;;25.67;18.13;;;1.10;89.80;;;;;;5042650;28;20028;-72
2021/11/23 03:39:40;;;;;;;35.65;19.52;;;1.10;89.80;;;;;;5048534;28;20368;-72
2021/11/23 03:42:06;;;;;;;27.25;20.23;;;1.10;89.80;;;;;;5047251;28;20080;-72
2021/11/23 03:44:34;;;;;;;27.73;19.92;;;1.10;89.80;;;;;;5046903;28;20041;-71
2021/11/23 03:47:00;;;;;;;25.17;17.98;;;1.00;89.80;;;;;;5047833;28;20059;-71
2021/11/23 03:49:26;;;;;;;27.20;18.92;;;1.00;89.80;;;;;;5044989;28;20033;-72
2021/11/23 03:51:53;;;;;;;23.33;18.23;;;1.10;89.90;;;;;;5045958;28;20045;-76
2021/11/23 03:54:19;;;;;;;30.67;19.23;;;1.00;89.70;;;;;;5045964;28;20029;-72
2021/11/23 03:56:47;;;;;;;27.77;19.60;;;1.00;89.70;;;;;;5044709;28;20036;-73
2021/11/23 03:59:12;;;;;;;26.42;19.27;;;1.00;89.70;;;;;;5046965;28;20051;-72
2021/11/23 04:01:38;;;;;;;28.52;19.52;;;1.00;89.70;;;;;;5044738;28;20464;-75
2021/11/23 04:04:04;;;;;;;30.65;20.42;;;1.00;89.70;;;;;;5041180;28;20849;-72
2021/11/23 04:06:29;;;;;;;25.85;19.73;;;1.00;89.80;;;;;;5051960;28;20345;-73
2021/11/23 04:08:55;;;;;;;24.75;19.17;;;1.10;89.90;;;;;;5065547;28;20031;-73
2021/11/23 04:11:21;;;;;;;26.70;19.45;;;1.20;89.80;;;;;;5066446;28;21271;-71
2021/11/23 04:13:47;;;;;;;27.08;21.08;;;1.20;89.80;;;;;;5065166;28;20047;-72
2021/11/23 04:16:13;;;;;;;29.20;20.75;;;1.40;89.90;;;;;;5065380;28;20081;-71
2021/11/23 04:18:39;;;;;;;28.75;21.00;;;1.40;89.90;;;;;;5063649;28;20025;-71
2021/11/23 04:21:05;;;;;;;27.17;20.27;;;1.50;89.80;;;;;;5055101;28;20070;-72
2021/11/23 04:23:30;;;;;;;24.27;18.80;;;1.60;89.90;;;;;;5052979;28;20032;-75
2021/11/23 04:25:56;;;;;;;28.38;19.13;;;1.60;90.10;;;;;;5065660;28;20106;-73
2021/11/23 04:28:23;;;;;;;23.45;18.85;;;1.70;90.00;;;;;;5064889;28;20136;-74
2021/11/23 04:30:48;;;;;;;24.95;19.38;;;1.70;90.10;;;;;;5065664;28;20048;-72
2021/11/23 04:33:14;;;;;;;24.45;18.92;;;1.80;90.10;;;;;;5066917;28;21629;-72
2021/11/23 04:35:41;;;;;;;29.10;20.73;;;1.90;90.20;;;;;;5061708;28;20432;-73
2021/11/23 04:38:08;;;;;;;28.75;18.52;;;1.90;90.20;;;;;;5064538;28;20035;-75
2021/11/23 04:40:34;;;;;;;26.25;19.67;;;2.00;90.30;;;;;;5062543;28;20043;-72
2021/11/23 04:43:01;;;;;;;24.25;17.67;;;2.10;90.40;;;;;;5066346;28;20025;-75
2021/11/23 04:45:28;;;;;;;23.05;18.70;;;2.10;90.40;;;;;;5065499;28;20116;-72
2021/11/23 04:47:55;;;;;;;26.98;19.20;;;2.10;90.30;;;;;;5065945;28;20036;-74
2021/11/23 04:50:20;;;;;;;28.42;20.50;;;2.20;90.30;;;;;;5064860;28;20064;-71
2021/11/23 04:52:46;;;;;;;23.92;18.15;;;2.20;90.40;;;;;;5063833;28;20375;-71
2021/11/23 04:55:12;;;;;;;27.52;19.83;;;2.20;90.20;;;;;;5066874;28;20388;-74
2021/11/23 04:57:39;;;;;;;38.28;21.20;;;2.20;90.20;;;;;;5066505;28;20404;-80
2021/11/23 05:00:07;;;;;;;29.85;19.65;;;2.20;90.10;;;;;;5066189;28;20021;-76
2021/11/23 05:02:32;;;;;;;26.55;19.90;;;2.20;90.20;;;;;;5064544;28;20041;-74
2021/11/23 05:04:58;;;;;;;29.27;21.15;;;2.20;90.10;;;;;;5066350;28;20048;-71
2021/11/23 05:07:24;;;;;;;29.98;20.73;;;2.20;90.10;;;;;;5061793;28;20349;-78
2021/11/23 05:09:49;;;;;;;27.50;19.92;;;2.30;90.20;;;;;;5060754;28;20112;-71
2021/11/23 05:12:15;;;;;;;28.63;18.95;;;2.30;90.30;;;;;;5066095;28;20419;-71
2021/11/23 05:14:41;;;;;;;30.45;21.77;;;2.30;90.20;;;;;;5063358;28;20068;-72
2021/11/23 05:17:06;;;;;;;28.77;20.10;;;2.20;90.10;;;;;;5063684;28;20093;-77
2021/11/23 05:19:32;;;;;;;30.65;20.75;;;2.30;90.20;;;;;;5065589;28;20368;-72
2021/11/23 05:21:58;;;;;;;27.67;19.40;;;2.30;90.30;;;;;;5061114;28;20041;-72
2021/11/23 05:24:24;;;;;;;26.10;18.55;;;2.30;90.40;;;;;;5044625;28;20040;-72
2021/11/23 05:26:49;;;;;;;26.67;19.25;;;2.40;90.50;;;;;;5044488;28;20533;-77
2021/11/23 05:29:15;;;;;;;24.23;19.17;;;2.40;90.50;;;;;;5043557;28;20504;-73
2021/11/23 05:31:41;;;;;;;25.83;18.38;;;2.50;90.50;;;;;;5048665;28;20067;-73
2021/11/23 05:34:07;;;;;;;27.42;19.98;;;2.50;90.60;;;;;;5050097;28;20453;-72
2021/11/23 05:36:33;;;;;;;27.02;19.83;;;2.60;90.60;;;;;;5056141;28;20040;-75
2021/11/23 05:38:58;;;;;;;29.52;20.15;;;2.60;90.50;;;;;;5049565;28;20037;-75
2021/11/23 05:41:24;;;;;;;24.77;19.38;;;2.60;90.50;;;;;;5046222;28;20041;-73
2021/11/23 05:43:50;;;;;;;34.63;22.45;;;2.60;90.60;;;;;;5051146;28;20051;-74
2021/11/23 05:46:16;;;;;;;31.70;23.35;;;2.60;90.60;;;;;;5059310;28;20074;-73
2021/11/23 05:48:42;;;;;;;37.78;27.25;;;2.70;90.60;;;;;;5051763;28;20029;-72
2021/11/23 05:51:07;;;;;;;37.40;24.25;;;2.70;90.60;;;;;;5054774;28;20045;-73
2021/11/23 05:53:39;;;;;;;31.33;23.25;;;2.70;90.60;;;;;;5062576;28;20496;-74
2021/11/23 05:56:06;;;;;;;29.95;20.67;;;2.80;90.70;;;;;;5059077;28;20132;-76
2021/11/23 05:58:32;;;;;;;32.92;20.38;;;2.80;90.70;;;;;;5042540;28;20041;-76
2021/11/23 06:00:57;;;;;;;27.85;21.05;;;2.80;90.70;;;;;;5039127;28;20060;-78
2021/11/23 06:03:23;;;;;;;29.20;20.48;;;2.80;90.70;;;;;;5042788;28;20037;-72
2021/11/23 06:05:49;;;;;;;31.30;22.08;;;2.90;90.70;;;;;;5046135;28;20119;-75
2021/11/23 06:08:15;;;;;;;32.75;21.30;;;2.90;90.70;;;;;;5036937;28;20041;-72
2021/11/23 06:10:41;;;;;;;29.60;20.70;;;2.90;90.70;;;;;;5059414;28;20494;-76
2021/11/23 06:13:07;;;;;;;30.23;21.73;;;2.90;90.70;;;;;;5053453;28;20098;-73
2021/11/23 06:15:33;;;;;;;33.97;22.63;;;3.00;90.70;;;;;;5048938;28;20392;-75
2021/11/23 06:18:02;;;;;;;33.10;21.40;;;3.00;90.70;;;;;;5041283;28;20041;-73
2021/11/23 06:20:32;;;;;;;31.45;20.92;;;3.00;90.70;;;;;;5055818;28;20047;-76
2021/11/23 06:23:03;;;;;;;27.25;20.98;;;3.00;90.70;;;;;;5043667;28;20132;-74
2021/11/23 06:25:29;;;;;;;29.08;21.38;;;3.10;90.70;;;;;;5060219;28;20032;-72
2021/11/23 06:27:55;;;;;;;30.75;22.05;;;3.00;90.70;;;;;;5052629;28;20029;-77
2021/11/23 06:30:21;;;;;;;28.77;23.20;;;3.10;90.70;;;;;;5035552;28;20401;-73
2021/11/23 06:32:49;;;;;;;37.70;25.83;;;3.10;90.80;;;;;;5040641;28;20045;-74
2021/11/23 06:35:15;;;;;;;33.67;24.77;;;3.10;90.80;;;;;;5043856;28;21460;-72
2021/11/23 06:37:42;;;;;;;31.63;23.95;;;3.20;90.80;;;;;;5044448;28;20047;-75
2021/11/23 06:40:09;;;;;;;37.30;23.63;;;3.20;90.80;;;;;;5046785;28;21303;-75
2021/11/23 06:42:34;;;;;;;29.98;22.20;;;3.20;90.80;;;;;;5047989;28;20045;-73
2021/11/23 06:45:00;;;;;;;30.35;22.55;;;3.20;90.80;;;;;;5052914;28;20079;-72
2021/11/23 06:47:26;;;;;;;26.38;21.02;;;3.30;90.70;;;;;;5065402;28;20080;-77
2021/11/23 06:49:52;;;;;;;29.98;21.17;;;3.20;90.70;;;;;;5054792;28;20029;-72
2021/11/23 06:52:19;;;;;;;26.27;20.20;;;3.30;90.80;;;;;;5045877;28;20136;-73
2021/11/23 06:54:46;;;;;;;31.42;22.63;;;3.30;90.70;;;;;;5050955;28;20504;-74
2021/11/23 06:57:12;;;;;;;33.08;22.23;;;3.30;90.70;;;;;;5041021;28;20033;-73
2021/11/23 06:59:38;;;;;;;30.33;23.13;;;3.30;90.70;;;;;;5041152;28;20040;-74
2021/11/23 07:02:05;;;;;;;27.75;21.63;;;3.30;90.70;;;;;;5042785;28;20064;-74
2021/11/23 07:04:31;;;;;;;29.17;21.17;;;3.40;90.60;;;;;;5047560;28;20079;-77
2021/11/23 07:06:57;;;;;;;30.15;23.92;;;3.40;90.60;;;;;;5046187;28;20725;-72
2021/11/23 07:09:23;;;;;;;29.10;24.17;;;3.30;90.60;;;;;;5046825;28;20036;-74
2021/11/23 07:11:49;;;;;;;34.30;23.73;;;3.40;90.70;;;;;;5048077;28;20052;-72
2021/11/23 07:14:16;;;;;;;28.20;22.05;;;3.40;90.70;;;;;;5042248;28;20036;-72
2021/11/23 07:16:42;;;;;;;30.67;22.95;;;3.40;90.80;;;;;;5046848;28;20536;-72
2021/11/23 07:19:08;;;;;;;27.98;23.00;;;3.40;90.70;;;;;;5040020;28;20113;-72
2021/11/23 07:21:34;;;;;;;29.98;23.33;;;3.50;90.80;;;;;;5038133;28;20041;-76
2021/11/23 07:24:00;;;;;;;29.63;21.85;;;3.50;90.70;;;;;;5039111;28;20049;-73
2021/11/23 07:26:27;;;;;;;28.50;23.08;;;3.60;90.70;;;;;;5042124;28;20033;-76
2021/11/23 07:28:53;;;;;;;29.40;22.90;;;3.60;90.70;;;;;;5058112;28;20032;-74
2021/11/23 07:31:19;;;;;;;27.10;20.52;;;3.60;90.60;;;;;;5046844;28;20084;-74
2021/11/23 07:33:44;;;;;;;30.02;24.17;;;3.60;90.70;;;;;;5039804;28;20098;-74
2021/11/23 07:36:10;;;;;;;29.52;24.35;;;3.70;90.80;;;;;;5042853;28;20041;-73
2021/11/23 07:38:36;;;;;;;29.08;22.63;;;3.70;90.70;;;;;;5045888;28;20041;-74
2021/11/23 07:41:02;;;;;;;27.05;21.55;;;3.70;90.60;;;;;;5048340;28;20459;-73
2021/11/23 07:43:28;;;;;;;29.17;21.63;;;3.70;90.60;;;;;;5043931;28;20108;-72
2021/11/23 07:45:53;;;;;;;29.50;21.95;;;3.80;90.60;;;;;;5045111;28;20120;-75
2021/11/23 07:48:19;;;;;;;29.23;21.13;;;3.80;90.60;;;;;;5038640;28;20484;-73
2021/11/23 07:50:45;;;;;;;29.98;23.05;;;3.80;90.60;;;;;;5044517;28;20041;-73
2021/11/23 07:53:10;;;;;;;26.15;23.23;;;3.90;90.70;;;;;;5049951;28;20036;-73
2021/11/23 07:55:37;;;;;;;31.20;23.95;;;3.90;90.70;;;;;;5045326;28;20037;-73
2021/11/23 07:58:03;;;;;;;34.30;25.65;;;4.00;90.70;;;;;;5042067;28;20432;-72
2021/11/23 08:00:29;;;;;;;32.47;25.70;;;4.00;90.70;;;;;;5044871;28;20040;-76
2021/11/23 08:02:55;;;;;;;34.90;26.92;;;4.00;90.70;;;;;;5045254;28;20094;-73
2021/11/23 08:05:22;;;;;;;34.97;25.25;;;4.10;90.70;;;;;;5040720;28;20037;-72
2021/11/23 08:07:48;;;;;;;32.22;23.70;;;4.10;90.70;;;;;;5041255;28;20365;-69
2021/11/23 08:10:13;;;;;;;36.70;27.27;;;4.10;90.70;;;;;;5039731;28;20032;-74
2021/11/23 08:12:39;;;;;;;35.17;25.27;;;4.20;90.70;;;;;;5042431;28;20041;-71
2021/11/23 08:15:06;;;;;;;33.70;25.25;;;4.20;90.70;;;;;;5043006;28;20045;-69
2021/11/23 08:17:31;;;;;;;28.67;24.45;;;4.30;90.80;;;;;;5040540;28;20040;-71
2021/11/23 08:19:58;;;;;;;36.80;24.70;;;4.40;90.80;;;;;;5041529;28;20095;-69
2021/11/23 08:22:24;;;;;;;31.42;25.15;;;4.40;90.80;;;;;;5043077;28;20052;-69
2021/11/23 08:24:49;;;;;;;33.55;24.45;;;4.40;90.80;;;;;;5053920;28;20485;-70
2021/11/23 08:27:16;;;;;;;29.52;24.50;;;4.50;90.80;;;;;;5039973;28;20041;-69
2021/11/23 08:29:42;;;;;;;30.80;26.63;;;4.60;90.70;;;;;;5034879;28;20481;-69
2021/11/23 08:32:08;;;;;;;34.80;27.75;;;4.60;90.70;;;;;;5041441;28;20029;-68
2021/11/23 08:34:34;;;;;;;35.25;29.70;;;4.60;90.70;;;;;;5035631;28;20061;-69
2021/11/23 08:37:01;;;;;;;32.97;28.67;;;4.70;90.60;;;;;;5051654;28;20480;-69
2021/11/23 08:39:26;;;;;;;34.85;28.75;;;4.70;90.60;;;;;;5052079;28;20124;-70
2021/11/23 08:41:53;;;;;;;34.60;28.70;;;4.80;90.50;;;;;;5055911;28;20053;-69
2021/11/23 08:44:19;;;;;;;34.97;29.13;;;4.80;90.40;;;;;;5055620;28;20067;-71
2021/11/23 08:46:45;;;;;;;38.50;28.42;;;4.90;90.40;;;;;;5043355;28;20064;-71
2021/11/23 08:49:11;;;;;;;38.78;27.40;;;4.90;90.30;;;;;;5048443;28;20049;-70
2021/11/23 08:51:38;;;;;;;36.47;28.45;;;5.00;90.10;;;;;;5053645;28;20596;-70
2021/11/23 08:54:05;;;;;;;32.20;26.10;;;5.00;90.00;;;;;;5062783;28;20066;-69
2021/11/23 08:56:37;;;;;;;32.75;25.65;;;5.00;90.00;;;;;;5062666;28;20033;-74
2021/11/23 08:59:07;;;;;;;31.25;24.15;;;5.10;90.00;;;;;;5060919;28;20041;-69
2021/11/23 09:01:32;;;;;;;30.67;22.17;;;5.20;89.90;;;;;;5062727;28;20048;-71
2021/11/23 09:04:02;;;;;;;31.88;23.92;;;5.20;89.90;;;;;;5080534;28;20094;-70
2021/11/23 09:06:28;;;;;;;28.63;22.45;;;5.30;89.80;;;;;;5068666;28;20394;-69
2021/11/23 09:08:54;;;;;;;34.50;27.23;;;5.30;89.50;;;;;;5068743;28;20028;-69
2021/11/23 09:11:22;;;;;;;32.63;25.40;;;5.40;89.50;;;;;;5066211;28;21654;-69
2021/11/23 09:13:48;;;;;;;34.88;27.63;;;5.40;89.30;;;;;;5066987;28;20047;-70
2021/11/23 09:16:13;;;;;;;37.40;28.75;;;5.50;89.20;;;;;;5069586;28;20028;-72
2021/11/23 09:18:39;;;;;;;34.08;26.33;;;5.60;89.10;;;;;;5065968;28;20025;-70
2021/11/23 09:21:05;;;;;;;36.47;25.77;;;5.60;89.10;;;;;;5067168;28;20167;-69
2021/11/23 09:23:31;;;;;;;36.08;24.95;;;5.60;89.00;;;;;;5068297;28;20037;-69
2021/11/23 09:25:56;;;;;;;33.20;25.65;;;5.70;88.90;;;;;;5067462;28;20567;-71
2021/11/23 09:28:22;;;;;;;28.17;23.17;;;5.80;88.90;;;;;;5067923;28;20029;-69
2021/11/23 09:30:48;;;;;;;29.17;24.75;;;5.80;88.80;;;;;;5065627;28;20048;-70
2021/11/23 09:33:15;;;;;;;30.30;24.25;;;5.80;88.70;;;;;;5065710;28;20031;-68
2021/11/23 09:35:41;;;;;;;29.30;23.13;;;5.90;88.60;;;;;;5068303;28;20063;-68
2021/11/23 09:38:06;;;;;;;29.52;23.05;;;6.00;88.40;;;;;;5064716;28;20394;-70
2021/11/23 09:40:33;;;;;;;26.77;23.15;;;6.10;88.30;;;;;;5070015;28;20094;-69
2021/11/23 09:42:59;;;;;;;32.05;24.20;;;6.10;88.10;;;;;;5067068;28;20044;-69
2021/11/23 09:45:25;;;;;;;33.45;25.35;;;6.10;88.00;;;;;;5066479;28;20056;-69
2021/11/23 09:47:52;;;;;;;30.80;23.95;;;6.10;87.90;;;;;;5061453;28;20475;-68
2021/11/23 09:50:18;;;;;;;32.42;24.40;;;6.20;88.00;;;;;;5066870;28;20029;-69
2021/11/23 09:52:45;;;;;;;32.17;24.48;;;6.30;87.40;;;;;;5065362;28;20028;-69
2021/11/23 09:55:13;;;;;;;32.25;23.75;;;6.40;87.30;;;;;;5061963;28;20585;-69
2021/11/23 09:57:39;;;;;;;29.08;23.50;;;6.40;87.30;;;;;;5042006;28;20480;-73
2021/11/23 10:00:26;;;;;;;30.52;24.27;;;6.50;86.70;;;;;;5040454;28;20560;-71
2021/11/23 10:02:53;;;;;;;30.70;24.77;;;6.50;86.60;;;;;;5044707;28;20075;-69
2021/11/23 10:05:19;;;;;;;34.08;24.38;;;6.60;86.50;;;;;;5066969;28;20041;-74
2021/11/23 10:07:46;;;;;;;35.72;25.27;;;6.70;86.20;;;;;;5062314;28;20436;-74
2021/11/23 10:10:20;;;;;;;31.98;24.83;;;6.80;86.20;;;;;;5056731;28;20037;-68
2021/11/23 10:13:06;;;;;;;34.53;25.60;;;6.90;86.30;;;;;;5043267;28;20475;-69
2021/11/23 10:15:36;;;;;;;28.48;23.00;;;7.00;85.50;;;;;;5053373;28;20033;-70
2021/11/23 10:18:15;;;;;;;38.33;26.30;;;7.00;85.90;;;;;;5055581;28;20037;-71
2021/11/23 10:20:45;;;;;;;33.45;25.17;;;7.10;85.40;;;;;;5041660;28;20037;-72
2021/11/23 10:23:32;;;;;;;32.40;25.42;;;7.10;85.40;;;;;;5044075;28;20033;-70
2021/11/23 10:26:06;;;;;;;33.28;26.50;;;7.10;85.30;;;;;;5041415;28;20033;-74
2021/11/23 10:28:32;;;;;;;37.80;27.20;;;7.20;85.10;;;;;;5061486;28;20029;-74
2021/11/23 10:31:01;;;;;;;38.45;28.52;;;7.20;85.20;;;;;;5065258;28;20097;-69
2021/11/23 10:33:27;;;;;;;34.25;26.67;;;7.20;84.90;;;;;;5064895;28;20032;-71
2021/11/23 10:35:58;;;;;;;35.92;27.00;;;7.30;85.20;;;;;;5064212;28;20056;-70
2021/11/23 10:38:24;;;;;;;33.63;26.30;;;7.30;84.90;;;;;;5060123;28;20166;-70
2021/11/23 10:40:50;;;;;;;35.55;27.38;;;7.30;84.60;;;;;;5047890;28;20079;-70
2021/11/23 10:43:20;;;;;;;40.03;26.65;;;7.20;84.40;;;;;;5038919;28;20492;-69
2021/11/23 10:45:49;;;;;;;36.63;27.08;;;7.20;84.60;;;;;;5043549;28;20029;-70
2021/11/23 10:48:17;;;;;;;33.40;25.42;;;7.30;84.90;;;;;;5036627;28;20044;-74
2021/11/23 10:50:57;;;;;;;41.97;27.30;;;7.30;84.80;;;;;;5044557;28;20465;-70
2021/11/23 10:53:24;;;;;;;37.08;28.00;;;7.30;84.10;;;;;;5037839;28;20110;-69
2021/11/23 10:55:49;;;;;;;38.92;26.40;;;7.20;84.30;;;;;;5048730;28;20522;-71
2021/11/23 10:58:16;;;;;;;34.58;27.27;;;7.30;84.70;;;;;;5047293;28;20058;-68
2021/11/23 11:00:47;;;;;;;36.58;26.83;;;7.30;84.60;;;;;;5040521;28;20067;-72
2021/11/23 11:03:16;;;;;;;36.15;25.63;;;7.30;84.50;;;;;;5032343;28;20432;-70
2021/11/23 11:05:43;;;;;;;34.03;27.48;;;7.40;84.90;;;;;;5047219;28;20035;-67
2021/11/23 11:08:11;;;;;;;38.50;26.63;;;7.50;84.80;;;;;;5049874;28;20040;-69
2021/11/23 11:10:38;;;;;;;34.00;27.15;;;7.60;84.60;;;;;;5044196;28;20051;-68
2021/11/23 11:13:10;;;;;;;35.25;25.63;;;7.60;84.20;;;;;;5041229;28;20041;-69
2021/11/23 11:15:44;;;;;;;32.70;25.27;;;7.60;84.10;;;;;;5046845;28;20380;-69
2021/11/23 11:18:12;;;;;;;36.42;26.02;;;7.60;84.30;;;;;;5035397;28;20067;-72
2021/11/23 11:20:46;;;;;;;34.38;26.55;;;7.60;84.70;;;;;;5066686;28;20060;-69
2021/11/23 11:23:20;;;;;;;35.63;24.02;;;7.70;84.40;;;;;;5057558;28;20056;-71
2021/11/23 11:28:47;;;;;;;27.17;23.23;;;7.80;84.10;;;;;;5063070;28;20460;-69
2021/11/23 11:31:41;;;;;;;32.35;23.08;;;7.90;84.20;;;;;;5063895;28;20525;-70
2021/11/23 11:34:18;;;;;;;33.65;24.05;;;7.80;84.10;;;;;;5062335;28;20475;-69
2021/11/23 11:36:46;;;;;;;30.10;22.90;;;7.80;84.10;;;;;;5061677;28;20041;-69
2021/11/23 11:39:49;;;;;;;30.17;22.17;;;7.80;84.00;;;;;;5065424;28;20126;-70
2021/11/23 11:42:21;;;;;;;33.65;23.55;;;7.90;84.10;;;;;;5021512;28;20037;-69
2021/11/23 11:44:51;;;;;;;31.42;23.25;;;7.90;84.30;;;;;;5060270;28;20113;-70
2021/11/23 11:47:19;;;;;;;35.15;25.13;;;8.10;84.60;;;;;;5062071;28;20029;-69
2021/11/23 11:49:56;;;;;;;34.80;26.10;;;8.10;84.80;;;;;;5064849;28;20024;-71
2021/11/23 11:52:27;;;;;;;32.53;25.27;;;8.10;85.10;;;;;;5044314;28;20060;-74
2021/11/23 11:55:16;;;;;;;35.05;25.63;;;8.10;85.40;;;;;;5048460;28;20078;-69
2021/11/23 11:57:51;;;;;;;38.30;26.90;;;8.20;85.90;;;;;;5040083;28;20364;-74
2021/11/23 12:00:32;;;;;;;36.58;27.05;;;8.20;86.10;;;;;;5032907;28;20486;-69
2021/11/23 12:03:23;;;;;;;40.05;28.95;;;8.20;85.70;;;;;;5044953;28;20037;-70
2021/11/23 12:05:56;;;;;;;31.75;25.10;;;8.10;86.00;;;;;;5044520;28;20487;-68
2021/11/23 12:08:32;;;;;;;36.65;23.48;;;8.20;86.20;;;;;;5041568;28;20100;-73
2021/11/23 12:11:00;;;;;;;35.30;25.15;;;8.30;86.10;;;;;;5041626;28;20114;-71
2021/11/23 12:13:48;;;;;;;34.38;25.55;;;8.30;86.00;;;;;;5039646;28;20033;-71
2021/11/23 12:16:35;;;;;;;29.75;21.88;;;8.40;86.10;;;;;;5046952;28;20029;-70
2021/11/23 12:19:29;;;;;;;31.05;22.33;;;8.50;86.10;;;;;;5040015;28;20832;-70
2021/11/23 12:22:02;;;;;;;32.70;22.30;;;8.50;86.30;;;;;;5032753;28;20484;-70
2021/11/23 12:24:38;;;;;;;30.35;20.70;;;8.60;86.00;;;;;;5062075;28;20028;-70
2021/11/23 12:27:09;;;;;;;27.08;19.98;;;8.60;86.10;;;;;;5049749;28;20037;-70
2021/11/23 12:29:34;;;;;;;27.10;19.75;;;8.60;86.20;;;;;;5043382;28;20079;-72
2021/11/23 12:32:00;;;;;;;29.55;19.23;;;8.60;86.40;;;;;;5045273;28;20444;-74
2021/11/23 12:34:26;;;;;;;31.92;20.02;;;8.70;86.50;;;;;;5037908;28;20083;-70
2021/11/23 12:36:55;;;;;;;31.63;21.60;;;8.70;86.20;;;;;;5037376;28;20049;-70
2021/11/23 12:39:37;;;;;;;33.15;23.58;;;8.70;86.30;;;;;;5042219;28;20044;-69
2021/11/23 12:42:08;;;;;;;41.83;23.30;;;8.70;86.40;;;;;;5042494;28;20129;-69